Angora, Nebraska
Current Conditions -  °F | °C
As of 4:29 AM on Thursday 18 Dec 2014 (Local Time) from KAIA Reporting Station
Haze Haze  
Wind Chill: -21°   Ceiling: 100
Heat Index: -16°   Visibility: 0.75mi
Dew Point: -18°   Wind: 5mph
Humidity: 84%   Direction: 260°W
Pressure: 29.99"   Gusts: NA
Location:  41.85°N, 103.13°W
Report Text: KAIA 181129Z AUTO 26004KT 3/4SM BR VV001 M16/M18 A2999 RMK AO2 I1001 T11561178
Loading
Personal Weather Stations






























Interactive Weather Map New forecast layout! Learn more

10-Day Weather Forecast

Advertisements
Track Severe Weather on mobile